createdAt,value
2018-08-12T00:00:28.138Z,0.00
2018-08-12T00:01:28.165Z,0.00
2018-08-12T00:02:28.184Z,0.00
2018-08-12T00:03:28.210Z,0.00
2018-08-12T00:04:28.236Z,4.00
2018-08-12T00:05:28.251Z,0.00
2018-08-12T00:06:28.273Z,0.00
2018-08-12T00:07:28.300Z,0.00
2018-08-12T00:08:28.324Z,0.00
2018-08-12T00:09:28.351Z,0.00
2018-08-12T00:10:28.367Z,0.00
2018-08-12T00:11:28.392Z,0.00
2018-08-12T00:12:28.417Z,0.00
2018-08-12T00:13:28.440Z,0.00
2018-08-12T00:14:28.462Z,0.00
2018-08-12T00:15:28.480Z,0.00
2018-08-12T00:16:28.510Z,0.00
2018-08-12T00:17:28.527Z,0.00
2018-08-12T00:18:28.546Z,0.00
2018-08-12T00:19:28.583Z,4.00
2018-08-12T00:20:28.598Z,0.00
2018-08-12T00:21:28.616Z,0.00
2018-08-12T00:22:28.636Z,0.00
2018-08-12T00:23:28.665Z,0.00
2018-08-12T00:24:28.686Z,4.00
2018-08-12T00:25:28.706Z,0.00
2018-08-12T00:26:28.734Z,0.00
2018-08-12T00:27:28.749Z,0.00
2018-08-12T00:28:28.776Z,0.00
2018-08-12T00:29:28.803Z,0.00
2018-08-12T00:30:28.821Z,0.00
2018-08-12T00:31:28.844Z,0.00
2018-08-12T00:32:28.865Z,0.00
2018-08-12T00:33:28.889Z,0.00
2018-08-12T00:34:28.913Z,0.00
2018-08-12T00:35:28.937Z,0.00
2018-08-12T00:36:28.959Z,0.00
2018-08-12T00:37:28.983Z,0.00
2018-08-12T00:38:29.001Z,0.00
2018-08-12T00:39:29.026Z,0.00
2018-08-12T00:40:29.049Z,0.00
2018-08-12T00:41:29.066Z,0.00
2018-08-12T00:42:29.092Z,0.00
2018-08-12T00:43:29.110Z,0.00
2018-08-12T00:44:29.143Z,0.00
2018-08-12T00:45:29.167Z,0.00
2018-08-12T00:46:29.181Z,0.00
2018-08-12T00:47:29.206Z,0.00
2018-08-12T00:48:29.226Z,0.00
2018-08-12T00:49:29.249Z,0.00
2018-08-12T00:50:29.273Z,0.00
2018-08-12T00:51:29.292Z,0.00
2018-08-12T00:52:29.316Z,0.00
2018-08-12T00:53:29.336Z,0.00
2018-08-12T00:54:29.361Z,4.00
2018-08-12T00:55:29.384Z,0.00
2018-08-12T00:56:29.406Z,0.00
2018-08-12T00:57:29.424Z,0.00
2018-08-12T00:58:29.456Z,0.00
2018-08-12T00:59:29.469Z,0.00
2018-08-12T01:00:29.493Z,0.00
2018-08-12T01:01:29.516Z,0.00
2018-08-12T01:02:29.540Z,0.00
2018-08-12T01:03:29.566Z,0.00
2018-08-12T01:04:29.579Z,12.00
2018-08-12T01:05:29.609Z,0.00
2018-08-12T01:06:29.628Z,0.00
2018-08-12T01:07:29.651Z,0.00
2018-08-12T01:08:29.672Z,0.00
2018-08-12T01:09:29.696Z,0.00
2018-08-12T01:10:29.725Z,0.00
2018-08-12T01:11:29.745Z,0.00
2018-08-12T01:12:29.761Z,0.00
2018-08-12T01:13:29.787Z,0.00
2018-08-12T01:14:29.812Z,0.00
2018-08-12T01:15:29.834Z,0.00
2018-08-12T01:16:29.872Z,0.00
2018-08-12T01:17:29.876Z,0.00
2018-08-12T01:18:29.899Z,0.00
2018-08-12T01:19:29.917Z,0.00
2018-08-12T01:20:29.939Z,0.00
2018-08-12T01:21:29.965Z,0.00
2018-08-12T01:22:29.984Z,0.00
2018-08-12T01:23:30.009Z,0.00
2018-08-12T01:24:30.035Z,0.00
2018-08-12T01:25:30.057Z,0.00
2018-08-12T01:26:30.074Z,0.00
2018-08-12T01:27:30.100Z,0.00
2018-08-12T01:28:30.126Z,0.00
2018-08-12T01:29:30.146Z,0.00
2018-08-12T01:30:30.165Z,0.00
2018-08-12T01:31:30.188Z,0.00
2018-08-12T01:32:30.211Z,0.00
2018-08-12T01:33:30.233Z,0.00
2018-08-12T01:34:30.252Z,4.00
2018-08-12T01:35:30.283Z,0.00
2018-08-12T01:36:30.301Z,0.00
2018-08-12T01:37:30.322Z,0.00
2018-08-12T01:38:30.341Z,0.00
2018-08-12T01:39:30.368Z,4.00
2018-08-12T01:40:30.389Z,0.00
2018-08-12T01:41:30.413Z,0.00
2018-08-12T01:42:30.435Z,0.00
2018-08-12T01:43:30.457Z,0.00
2018-08-12T01:44:30.480Z,0.00
2018-08-12T01:45:30.502Z,0.00
2018-08-12T01:46:30.521Z,0.00
2018-08-12T01:47:30.547Z,0.00
2018-08-12T01:48:30.568Z,0.00
2018-08-12T01:49:30.594Z,0.00
2018-08-12T01:50:30.612Z,0.00
2018-08-12T01:51:30.639Z,0.00
2018-08-12T01:52:30.660Z,0.00
2018-08-12T01:53:30.688Z,0.00
2018-08-12T01:54:30.704Z,0.00
2018-08-12T01:55:30.729Z,0.00
2018-08-12T01:56:30.750Z,0.00
2018-08-12T01:57:30.771Z,0.00
2018-08-12T01:58:30.791Z,0.00
2018-08-12T01:59:30.818Z,0.00
2018-08-12T02:00:30.838Z,0.00
2018-08-12T02:01:30.856Z,0.00
2018-08-12T02:02:30.889Z,0.00
2018-08-12T02:03:30.903Z,0.00
2018-08-12T02:04:30.931Z,0.00
2018-08-12T02:05:30.947Z,0.00
2018-08-12T02:06:30.973Z,0.00
2018-08-12T02:07:30.993Z,0.00
2018-08-12T02:08:31.018Z,0.00
2018-08-12T02:09:31.043Z,0.00
2018-08-12T02:10:31.062Z,0.00
2018-08-12T02:11:31.087Z,0.00
2018-08-12T02:12:31.103Z,0.00
2018-08-12T02:13:31.135Z,0.00
2018-08-12T02:14:31.151Z,0.00
2018-08-12T02:15:31.177Z,0.00
2018-08-12T02:16:31.196Z,0.00
2018-08-12T02:17:31.222Z,0.00
2018-08-12T02:18:31.242Z,0.00
2018-08-12T02:19:31.264Z,0.00
2018-08-12T02:20:31.291Z,0.00
2018-08-12T02:21:31.315Z,0.00
2018-08-12T02:22:31.331Z,4.00
2018-08-12T02:23:31.359Z,0.00
2018-08-12T02:24:31.374Z,0.00
2018-08-12T02:25:31.397Z,4.00
2018-08-12T02:26:31.423Z,0.00
2018-08-12T02:27:31.449Z,0.00
2018-08-12T02:28:31.471Z,0.00
2018-08-12T02:29:31.489Z,0.00
2018-08-12T02:30:31.514Z,0.00
2018-08-12T02:31:31.532Z,0.00
2018-08-12T02:32:31.554Z,0.00
2018-08-12T02:33:31.577Z,0.00
2018-08-12T02:34:31.602Z,0.00
2018-08-12T02:35:31.629Z,0.00
2018-08-12T02:36:31.645Z,0.00
2018-08-12T02:37:31.667Z,0.00
2018-08-12T02:38:31.691Z,0.00
2018-08-12T02:39:31.713Z,0.00
2018-08-12T02:40:31.734Z,0.00
2018-08-12T02:41:31.755Z,0.00
2018-08-12T02:42:31.782Z,0.00
2018-08-12T02:43:31.816Z,0.00
2018-08-12T02:44:31.821Z,0.00
2018-08-12T02:45:31.849Z,0.00
2018-08-12T02:46:31.872Z,0.00
2018-08-12T02:47:31.893Z,0.00
2018-08-12T02:48:31.913Z,0.00
2018-08-12T02:49:31.939Z,0.00
2018-08-12T02:50:31.955Z,0.00
2018-08-12T02:51:31.981Z,0.00
2018-08-12T02:52:32.008Z,0.00
2018-08-12T02:53:32.025Z,0.00
2018-08-12T02:54:32.049Z,0.00
2018-08-12T02:55:32.071Z,0.00
2018-08-12T02:56:32.092Z,0.00
2018-08-12T02:57:32.119Z,0.00
2018-08-12T02:58:32.137Z,4.00
2018-08-12T02:59:32.161Z,4.00
2018-08-12T03:00:32.185Z,0.00
2018-08-12T03:01:32.200Z,0.00
2018-08-12T03:02:32.226Z,0.00
2018-08-12T03:03:32.278Z,4.00
2018-08-12T03:04:32.271Z,0.00
2018-08-12T03:05:32.299Z,0.00
2018-08-12T03:06:32.317Z,4.00
2018-08-12T03:07:32.339Z,0.00
2018-08-12T03:08:32.359Z,0.00
2018-08-12T03:09:32.381Z,4.00
2018-08-12T03:10:32.409Z,4.00
2018-08-12T03:11:32.424Z,4.00
2018-08-12T03:12:32.451Z,4.00
2018-08-12T03:13:32.475Z,4.00
2018-08-12T03:14:32.505Z,4.00
2018-08-12T03:15:32.520Z,0.00
2018-08-12T03:16:32.542Z,0.00
2018-08-12T03:17:32.561Z,0.00
2018-08-12T03:18:32.585Z,0.00
2018-08-12T03:19:32.608Z,4.00
2018-08-12T03:20:32.630Z,4.00
2018-08-12T03:21:32.649Z,4.00
2018-08-12T03:22:32.771Z,4.00
2018-08-12T03:23:32.699Z,4.00
2018-08-12T03:24:32.719Z,8.00
2018-08-12T03:25:32.739Z,4.00
2018-08-12T03:26:32.759Z,8.00
2018-08-12T03:27:32.789Z,8.00
2018-08-12T03:28:32.809Z,12.00
2018-08-12T03:29:32.830Z,12.00
2018-08-12T03:30:32.853Z,12.00
2018-08-12T03:31:32.875Z,16.00
2018-08-12T03:32:32.895Z,16.00
2018-08-12T03:33:32.919Z,20.00
2018-08-12T03:34:32.942Z,24.00
2018-08-12T03:35:32.966Z,24.00
2018-08-12T03:36:32.985Z,28.00
2018-08-12T03:37:33.008Z,36.00
2018-08-12T03:38:33.032Z,36.00
2018-08-12T03:39:33.053Z,44.00
2018-08-12T03:40:33.086Z,52.00
2018-08-12T03:41:33.099Z,56.00
2018-08-12T03:42:33.123Z,64.00
2018-08-12T03:43:33.154Z,68.00
2018-08-12T03:44:33.163Z,80.00
2018-08-12T03:45:33.192Z,88.00
2018-08-12T03:46:33.209Z,100.00
2018-08-12T03:47:33.233Z,108.00
2018-08-12T03:48:33.254Z,124.00
2018-08-12T03:49:33.279Z,136.00
2018-08-12T03:50:33.297Z,148.00
2018-08-12T03:51:33.324Z,160.00
2018-08-12T03:52:33.345Z,176.00
2018-08-12T03:53:33.364Z,188.00
2018-08-12T03:54:33.392Z,200.00
2018-08-12T03:55:33.410Z,216.00
2018-08-12T03:56:33.434Z,232.00
2018-08-12T03:57:33.452Z,244.00
2018-08-12T03:58:33.486Z,260.00
2018-08-12T03:59:33.503Z,276.00
2018-08-12T04:00:33.522Z,292.00
2018-08-12T04:01:33.549Z,308.00
2018-08-12T04:02:33.568Z,332.00
2018-08-12T04:03:33.591Z,352.00
2018-08-12T04:04:33.609Z,376.00
2018-08-12T04:05:33.635Z,400.00
2018-08-12T04:06:33.655Z,420.00
2018-08-12T04:07:33.683Z,444.00
2018-08-12T04:08:33.702Z,468.00
2018-08-12T04:09:33.725Z,496.00
2018-08-12T04:10:33.746Z,516.00
2018-08-12T04:11:33.779Z,544.00
2018-08-12T04:12:33.789Z,568.00
2018-08-12T04:13:33.811Z,600.00
2018-08-12T04:14:33.846Z,628.00
2018-08-12T04:15:33.862Z,656.00
2018-08-12T04:16:33.879Z,680.00
2018-08-12T04:17:33.903Z,704.00
2018-08-12T04:18:33.925Z,728.00
2018-08-12T04:19:33.947Z,752.00
2018-08-12T04:20:33.969Z,772.00
2018-08-12T04:21:33.992Z,792.00
2018-08-12T04:22:34.013Z,812.00
2018-08-12T04:23:34.037Z,832.00
2018-08-12T04:24:34.060Z,852.00
2018-08-12T04:25:34.078Z,884.00
2018-08-12T04:26:34.107Z,908.00
2018-08-12T04:27:34.123Z,940.00
2018-08-12T04:28:34.156Z,988.00
2018-08-12T04:29:34.174Z,1040.00
2018-08-12T04:30:34.192Z,1100.00
2018-08-12T04:31:34.219Z,1172.00
2018-08-12T04:32:34.242Z,1232.00
2018-08-12T04:33:34.263Z,1296.00
2018-08-12T04:34:34.289Z,1360.00
2018-08-12T04:35:34.311Z,1420.00
2018-08-12T04:36:34.331Z,1472.00
2018-08-12T04:37:34.349Z,1524.00
2018-08-12T04:38:34.375Z,1576.00
2018-08-12T04:39:34.399Z,1628.00
2018-08-12T04:40:34.409Z,1668.00
2018-08-12T04:41:34.439Z,1712.00
2018-08-12T04:42:34.464Z,1748.00
2018-08-12T04:43:34.483Z,1772.00
2018-08-12T04:44:34.509Z,1792.00
2018-08-12T04:45:34.537Z,1808.00
2018-08-12T04:46:34.553Z,1824.00
2018-08-12T04:47:34.571Z,1848.00
2018-08-12T04:48:34.599Z,1876.00
2018-08-12T04:49:34.619Z,1900.00
2018-08-12T04:50:34.642Z,1928.00
2018-08-12T04:51:34.660Z,1952.00
2018-08-12T04:52:34.691Z,1980.00
2018-08-12T04:53:34.712Z,1996.00
2018-08-12T04:54:34.736Z,2020.00
2018-08-12T04:55:34.750Z,2048.00
2018-08-12T04:56:34.780Z,2092.00
2018-08-12T04:57:34.796Z,2152.00
2018-08-12T04:58:34.819Z,2216.00
2018-08-12T04:59:34.850Z,2288.00
2018-08-12T05:00:34.867Z,2368.00
2018-08-12T05:01:34.889Z,2436.00
2018-08-12T05:02:34.916Z,2508.00
2018-08-12T05:03:34.936Z,2580.00
2018-08-12T05:04:34.956Z,2656.00
2018-08-12T05:05:34.980Z,2732.00
2018-08-12T05:06:35.010Z,2792.00
2018-08-12T05:07:35.028Z,2808.00
2018-08-12T05:08:35.052Z,2764.00
2018-08-12T05:09:35.077Z,2716.00
2018-08-12T05:10:35.094Z,2696.00
2018-08-12T05:11:35.118Z,2712.00
2018-08-12T05:12:35.140Z,2740.00
2018-08-12T05:13:35.161Z,2784.00
2018-08-12T05:14:35.182Z,2840.00
2018-08-12T05:15:35.205Z,2900.00
2018-08-12T05:16:35.227Z,2968.00
2018-08-12T05:17:35.253Z,3016.00
2018-08-12T05:18:35.271Z,3056.00
2018-08-12T05:19:35.324Z,3100.00
2018-08-12T05:20:35.313Z,3148.00
2018-08-12T05:21:35.339Z,3208.00
2018-08-12T05:22:35.359Z,3272.00
2018-08-12T05:23:35.387Z,3340.00
2018-08-12T05:24:35.404Z,3412.00
2018-08-12T05:25:35.430Z,3468.00
2018-08-12T05:26:35.457Z,3516.00
2018-08-12T05:27:35.484Z,3564.00
2018-08-12T05:28:35.499Z,3600.00
2018-08-12T05:29:35.520Z,3644.00
2018-08-12T05:30:35.542Z,3668.00
2018-08-12T05:31:35.566Z,3676.00
2018-08-12T05:32:35.589Z,3640.00
2018-08-12T05:33:35.610Z,3632.00
2018-08-12T05:34:35.636Z,3616.00
2018-08-12T05:35:35.653Z,3608.00
2018-08-12T05:36:35.677Z,3644.00
2018-08-12T05:37:35.703Z,3692.00
2018-08-12T05:38:35.728Z,3724.00
2018-08-12T05:39:35.749Z,3736.00
2018-08-12T05:40:35.773Z,3756.00
2018-08-12T05:41:35.798Z,3760.00
2018-08-12T05:42:35.821Z,3764.00
2018-08-12T05:43:35.839Z,3776.00
2018-08-12T05:44:35.862Z,3776.00
2018-08-12T05:45:35.885Z,3784.00
2018-08-12T05:46:35.906Z,3804.00
2018-08-12T05:47:35.932Z,3812.00
2018-08-12T05:48:35.954Z,3808.00
2018-08-12T05:49:35.974Z,3784.00
2018-08-12T05:50:35.998Z,3840.00
2018-08-12T05:51:36.157Z,3884.00
2018-08-12T05:52:36.040Z,3916.00
2018-08-12T05:53:36.066Z,3944.00
2018-08-12T05:54:36.089Z,3976.00
2018-08-12T05:55:36.109Z,3984.00
2018-08-12T05:56:36.137Z,3968.00
2018-08-12T05:57:36.154Z,3956.00
2018-08-12T05:58:36.180Z,3964.00
2018-08-12T05:59:36.210Z,3984.00
2018-08-12T06:00:36.228Z,3992.00
2018-08-12T06:01:36.250Z,3940.00
2018-08-12T06:02:36.322Z,3944.00
2018-08-12T06:03:36.293Z,4004.00
2018-08-12T06:04:36.320Z,4116.00
2018-08-12T06:05:36.342Z,4192.00
2018-08-12T06:06:36.362Z,4180.00
2018-08-12T06:07:36.389Z,4260.00
2018-08-12T06:08:36.410Z,4228.00
2018-08-12T06:09:36.435Z,4204.00
2018-08-12T06:10:36.458Z,4160.00
2018-08-12T06:11:36.477Z,4096.00
2018-08-12T06:12:36.500Z,4032.00
2018-08-12T06:13:36.524Z,3972.00
2018-08-12T06:14:36.542Z,3928.00
2018-08-12T06:15:36.600Z,3964.00
2018-08-12T06:16:36.594Z,3964.00
2018-08-12T06:17:36.616Z,3956.00
2018-08-12T06:18:36.635Z,4060.00
2018-08-12T06:19:36.659Z,4216.00
2018-08-12T06:20:36.682Z,4408.00
2018-08-12T06:21:36.706Z,4472.00
2018-08-12T06:22:36.731Z,4552.00
2018-08-12T06:23:36.756Z,4568.00
2018-08-12T06:24:36.774Z,4584.00
2018-08-12T06:25:36.816Z,4640.00
2018-08-12T06:26:36.818Z,4632.00
2018-08-12T06:27:36.842Z,4696.00
2018-08-12T06:28:36.867Z,4788.00
2018-08-12T06:29:36.889Z,4900.00
2018-08-12T06:30:36.913Z,5020.00
2018-08-12T06:31:36.997Z,5212.00
2018-08-12T06:32:36.955Z,5320.00
2018-08-12T06:33:36.981Z,5432.00
2018-08-12T06:34:37.007Z,5540.00
2018-08-12T06:35:37.028Z,5608.00
2018-08-12T06:36:37.051Z,5640.00
2018-08-12T06:37:37.072Z,5500.00
2018-08-12T06:38:37.094Z,5544.00
2018-08-12T06:39:37.120Z,5512.00
2018-08-12T06:40:37.143Z,5420.00
2018-08-12T06:41:37.165Z,5288.00
2018-08-12T06:42:37.190Z,5164.00
2018-08-12T06:43:37.217Z,5220.00
2018-08-12T06:44:37.235Z,5204.00
2018-08-12T06:45:37.291Z,5112.00
2018-08-12T06:46:37.283Z,5188.00
2018-08-12T06:47:37.300Z,5112.00
2018-08-12T06:48:37.327Z,5052.00
2018-08-12T06:49:37.350Z,4952.00
2018-08-12T06:50:37.376Z,4908.00
2018-08-12T06:51:37.421Z,4876.00
2018-08-12T06:52:37.417Z,4768.00
2018-08-12T06:53:37.441Z,4668.00
2018-08-12T06:54:37.469Z,4548.00
2018-08-12T06:55:37.488Z,4480.00
2018-08-12T06:56:37.519Z,4428.00
2018-08-12T06:57:37.550Z,4384.00
2018-08-12T06:58:37.566Z,4356.00
2018-08-12T06:59:37.581Z,4364.00
2018-08-12T07:00:37.609Z,4356.00
2018-08-12T07:01:37.637Z,4388.00
2018-08-12T07:02:37.656Z,4436.00
2018-08-12T07:03:37.681Z,4516.00
2018-08-12T07:04:37.697Z,4624.00
2018-08-12T07:05:37.720Z,4720.00
2018-08-12T07:06:37.755Z,4828.00
2018-08-12T07:07:37.776Z,4936.00
2018-08-12T07:08:37.789Z,5012.00
2018-08-12T07:09:37.812Z,5044.00
2018-08-12T07:10:37.837Z,5056.00
2018-08-12T07:11:37.862Z,5096.00
2018-08-12T07:12:37.889Z,5112.00
2018-08-12T07:13:37.907Z,5120.00
2018-08-12T07:14:37.935Z,5116.00
2018-08-12T07:15:37.954Z,5036.00
2018-08-12T07:16:37.976Z,4892.00
2018-08-12T07:17:38.002Z,4768.00
2018-08-12T07:18:38.026Z,4896.00
2018-08-12T07:19:38.046Z,5008.00
2018-08-12T07:20:38.071Z,5108.00
2018-08-12T07:21:38.100Z,5136.00
2018-08-12T07:22:38.116Z,5080.00
2018-08-12T07:23:38.144Z,5128.00
2018-08-12T07:24:38.176Z,5164.00
2018-08-12T07:25:38.189Z,5332.00
2018-08-12T07:26:38.213Z,5452.00
2018-08-12T07:27:38.243Z,5604.00
2018-08-12T07:28:38.265Z,5688.00
2018-08-12T07:29:38.290Z,5748.00
2018-08-12T07:30:38.308Z,5820.00
2018-08-12T07:31:38.332Z,5872.00
2018-08-12T07:32:38.358Z,5936.00
2018-08-12T07:33:38.376Z,6000.00
2018-08-12T07:34:38.400Z,6088.00
2018-08-12T07:35:38.424Z,6164.00
2018-08-12T07:36:38.448Z,6252.00
2018-08-12T07:37:38.472Z,6400.00
2018-08-12T07:38:38.548Z,6508.00
2018-08-12T07:39:38.520Z,6608.00
2018-08-12T07:40:38.538Z,6688.00
2018-08-12T07:41:38.568Z,6844.00
2018-08-12T07:42:38.589Z,7072.00
2018-08-12T07:43:38.610Z,7244.00
2018-08-12T07:44:38.639Z,7532.00
2018-08-12T07:45:38.658Z,7920.00
2018-08-12T07:46:38.684Z,8200.00
2018-08-12T07:47:38.713Z,8400.00
2018-08-12T07:48:38.742Z,8584.00
2018-08-12T07:49:38.755Z,8812.00
2018-08-12T07:50:38.776Z,9088.00
2018-08-12T07:51:38.807Z,9504.00
2018-08-12T07:52:38.832Z,10056.00
2018-08-12T07:53:38.851Z,10860.00
2018-08-12T07:54:38.877Z,11944.00
2018-08-12T07:55:38.946Z,12956.00
2018-08-12T07:56:38.925Z,13912.00
2018-08-12T07:57:38.949Z,14756.00
2018-08-12T07:58:38.971Z,15456.00
2018-08-12T07:59:38.997Z,16084.00
2018-08-12T08:00:39.017Z,16336.00
2018-08-12T08:01:39.045Z,16420.00
2018-08-12T08:02:39.072Z,16776.00
2018-08-12T08:03:39.094Z,16572.00
2018-08-12T08:04:39.120Z,15852.00
2018-08-12T08:05:39.146Z,15360.00
2018-08-12T08:06:39.178Z,15288.00
2018-08-12T08:07:39.203Z,15388.00
2018-08-12T08:08:39.226Z,15676.00
2018-08-12T08:09:39.243Z,16136.00
2018-08-12T08:10:39.270Z,16276.00
2018-08-12T08:11:39.300Z,16228.00
2018-08-12T08:12:39.363Z,16076.00
2018-08-12T08:13:39.354Z,15784.00
2018-08-12T08:14:39.369Z,15596.00
2018-08-12T08:15:39.400Z,15504.00
2018-08-12T08:16:39.427Z,15476.00
2018-08-12T08:17:39.450Z,15408.00
2018-08-12T08:18:39.472Z,15356.00
2018-08-12T08:19:39.501Z,15292.00
2018-08-12T08:20:39.523Z,15200.00
2018-08-12T08:21:39.548Z,15160.00
2018-08-12T08:22:39.580Z,15248.00
2018-08-12T08:23:39.601Z,15448.00
2018-08-12T08:24:39.627Z,15592.00
2018-08-12T08:25:39.718Z,15752.00
2018-08-12T08:26:39.686Z,15880.00
2018-08-12T08:27:39.702Z,16280.00
2018-08-12T08:28:39.732Z,16508.00
2018-08-12T08:29:39.760Z,16556.00
2018-08-12T08:30:39.784Z,16476.00
2018-08-12T08:31:39.986Z,16208.00
2018-08-12T08:32:39.834Z,16100.00
2018-08-12T08:33:39.860Z,16028.00
2018-08-12T08:34:39.896Z,15852.00
2018-08-12T08:35:39.914Z,15900.00
2018-08-12T08:36:39.939Z,16120.00
2018-08-12T08:37:39.960Z,16376.00
2018-08-12T08:38:39.989Z,16544.00
2018-08-12T08:39:40.020Z,16596.00
2018-08-12T08:40:40.044Z,16904.00
2018-08-12T08:41:40.068Z,17016.00
2018-08-12T08:42:40.098Z,16780.00
2018-08-12T08:43:40.120Z,16612.00
2018-08-12T08:44:40.147Z,16856.00
2018-08-12T08:45:40.176Z,16952.00
2018-08-12T08:46:40.196Z,16840.00
2018-08-12T08:47:40.226Z,16916.00
2018-08-12T08:48:40.250Z,16440.00
2018-08-12T08:49:40.278Z,16392.00
2018-08-12T08:50:40.361Z,16488.00
2018-08-12T08:51:40.356Z,16452.00
2018-08-12T08:52:40.354Z,16876.00
2018-08-12T08:53:40.388Z,17444.00
2018-08-12T08:54:40.410Z,17760.00
2018-08-12T08:55:40.501Z,17328.00
2018-08-12T08:56:40.457Z,16884.00
2018-08-12T08:57:40.487Z,16264.00
2018-08-12T08:58:40.520Z,15848.00
2018-08-12T08:59:40.538Z,15540.00
2018-08-12T09:00:40.567Z,15056.00
2018-08-12T09:01:40.590Z,14624.00
2018-08-12T09:02:40.619Z,14224.00
2018-08-12T09:03:40.648Z,13888.00
2018-08-12T09:04:40.670Z,13404.00
2018-08-12T09:05:40.694Z,13124.00
2018-08-12T09:06:40.726Z,13168.00
2018-08-12T09:07:40.751Z,13088.00
2018-08-12T09:08:41.106Z,13108.00
2018-08-12T09:09:40.802Z,13016.00
2018-08-12T09:10:40.831Z,12788.00
2018-08-12T09:11:40.872Z,11668.00
2018-08-12T09:12:40.885Z,11024.00
2018-08-12T09:13:40.909Z,11068.00
2018-08-12T09:14:40.929Z,10920.00
2018-08-12T09:15:40.960Z,10904.00
2018-08-12T09:16:40.990Z,11108.00
2018-08-12T09:17:41.012Z,11748.00
2018-08-12T09:18:41.041Z,12280.00
2018-08-12T09:19:41.067Z,12508.00
2018-08-12T09:20:41.099Z,13584.00
2018-08-12T09:21:41.126Z,13924.00
2018-08-12T09:22:41.142Z,13744.00
2018-08-12T09:23:41.173Z,13548.00
2018-08-12T09:24:41.200Z,13364.00
2018-08-12T09:25:41.222Z,13012.00
2018-08-12T09:26:41.249Z,12380.00
2018-08-12T09:27:41.311Z,10700.00
2018-08-12T09:28:41.297Z,9592.00
2018-08-12T09:29:41.323Z,9924.00
2018-08-12T09:30:41.348Z,10724.00
2018-08-12T09:31:41.377Z,11096.00
2018-08-12T09:32:41.401Z,11116.00
2018-08-12T09:33:41.433Z,11876.00
2018-08-12T09:34:41.456Z,13200.00
2018-08-12T09:35:41.487Z,15040.00
2018-08-12T09:36:41.507Z,17404.00
2018-08-12T09:37:41.529Z,19424.00
2018-08-12T09:38:41.562Z,19392.00
2018-08-12T09:39:41.588Z,19584.00
2018-08-12T09:40:41.610Z,20128.00
2018-08-12T09:41:41.634Z,20448.00
2018-08-12T09:42:41.667Z,20512.00
2018-08-12T09:43:41.693Z,20576.00
2018-08-12T09:44:41.718Z,20640.00
2018-08-12T09:45:41.741Z,20512.00
2018-08-12T09:46:41.772Z,20960.00
2018-08-12T09:47:41.795Z,22464.00
2018-08-12T09:48:41.850Z,22304.00
2018-08-12T09:49:41.845Z,22528.00
2018-08-12T09:50:41.878Z,22752.00
2018-08-12T09:51:42.075Z,23840.00
2018-08-12T09:52:41.925Z,26912.00
2018-08-12T09:53:41.955Z,27168.00
2018-08-12T09:54:41.986Z,28128.00
2018-08-12T09:55:42.010Z,27680.00
2018-08-12T09:56:42.044Z,26976.00
2018-08-12T09:57:42.063Z,27488.00
2018-08-12T09:58:42.098Z,28288.00
2018-08-12T09:59:42.124Z,28480.00
2018-08-12T10:00:42.144Z,28448.00
2018-08-12T10:01:42.176Z,28608.00
2018-08-12T10:02:42.204Z,29376.00
2018-08-12T10:03:42.232Z,29952.00
2018-08-12T10:04:42.256Z,29696.00
2018-08-12T10:05:42.285Z,29248.00
2018-08-12T10:06:42.317Z,28576.00
2018-08-12T10:07:42.345Z,27136.00
2018-08-12T10:08:42.376Z,26368.00
2018-08-12T10:09:42.401Z,24544.00
2018-08-12T10:10:42.423Z,23456.00
2018-08-12T10:11:42.454Z,22944.00
2018-08-12T10:12:42.483Z,22912.00
2018-08-12T10:13:42.507Z,22720.00
2018-08-12T10:14:42.537Z,23328.00
2018-08-12T10:15:42.642Z,23936.00
2018-08-12T10:16:42.594Z,23680.00
2018-08-12T10:17:42.623Z,23200.00
2018-08-12T10:18:42.655Z,22752.00
2018-08-12T10:19:42.678Z,22592.00
2018-08-12T10:20:42.707Z,22720.00
2018-08-12T10:21:42.735Z,23072.00
2018-08-12T10:22:42.765Z,23424.00
2018-08-12T10:23:42.797Z,23360.00
2018-08-12T10:24:42.820Z,22976.00
2018-08-12T10:25:42.851Z,23008.00
2018-08-12T10:26:42.875Z,22784.00
2018-08-12T10:27:42.907Z,22976.00
2018-08-12T10:28:42.936Z,22944.00
2018-08-12T10:29:42.958Z,21920.00
2018-08-12T10:30:42.990Z,21504.00
2018-08-12T10:31:43.014Z,21664.00
2018-08-12T10:32:43.056Z,21984.00
2018-08-12T10:33:43.082Z,22400.00
2018-08-12T10:34:43.104Z,22720.00
2018-08-12T10:35:43.132Z,22784.00
2018-08-12T10:36:43.160Z,21824.00
2018-08-12T10:37:43.185Z,20960.00
2018-08-12T10:38:43.217Z,20640.00
2018-08-12T10:39:43.246Z,20992.00
2018-08-12T10:40:43.269Z,22528.00
2018-08-12T10:41:43.300Z,23520.00
2018-08-12T10:42:43.331Z,24640.00
2018-08-12T10:43:43.356Z,24608.00
2018-08-12T10:44:43.380Z,24128.00
2018-08-12T10:45:43.412Z,22080.00
2018-08-12T10:46:43.440Z,20544.00
2018-08-12T10:47:43.468Z,20704.00
2018-08-12T10:48:43.494Z,22464.00
2018-08-12T10:49:43.524Z,24256.00
2018-08-12T10:50:43.562Z,24832.00
2018-08-12T10:51:43.582Z,25088.00
2018-08-12T10:52:43.608Z,25248.00
2018-08-12T10:53:43.639Z,25472.00
2018-08-12T10:54:43.664Z,26752.00
2018-08-12T10:55:43.693Z,27840.00
2018-08-12T10:56:43.720Z,29952.00
2018-08-12T10:57:43.750Z,30432.00
2018-08-12T10:58:43.772Z,31328.00
2018-08-12T10:59:43.802Z,27904.00
2018-08-12T11:00:43.837Z,28256.00
2018-08-12T11:01:43.864Z,28064.00
2018-08-12T11:02:43.891Z,26528.00
2018-08-12T11:03:43.925Z,25376.00
2018-08-12T11:04:43.951Z,24736.00
2018-08-12T11:05:43.975Z,23712.00
2018-08-12T11:06:44.003Z,24416.00
2018-08-12T11:07:44.031Z,25120.00
2018-08-12T11:08:44.060Z,27264.00
2018-08-12T11:09:44.095Z,28864.00
2018-08-12T11:10:44.124Z,30464.00
2018-08-12T11:11:44.143Z,31840.00
2018-08-12T11:12:44.247Z,24672.00
2018-08-12T11:13:44.206Z,19392.00
2018-08-12T11:14:44.232Z,15436.00
2018-08-12T11:15:44.262Z,13448.00
2018-08-12T11:16:44.287Z,12080.00
2018-08-12T11:17:44.321Z,11208.00
2018-08-12T11:18:44.347Z,10592.00
2018-08-12T11:19:44.377Z,10196.00
2018-08-12T11:20:44.410Z,10084.00
2018-08-12T11:21:44.429Z,10204.00
2018-08-12T11:22:44.462Z,10372.00
2018-08-12T11:23:44.495Z,10796.00
2018-08-12T11:24:44.511Z,11080.00
2018-08-12T11:25:44.551Z,11228.00
2018-08-12T11:26:44.586Z,11512.00
2018-08-12T11:27:44.597Z,11248.00
2018-08-12T11:28:44.623Z,10576.00
2018-08-12T11:29:44.652Z,10168.00
2018-08-12T11:30:44.683Z,10048.00
2018-08-12T11:31:44.715Z,10180.00
2018-08-12T11:32:44.739Z,10396.00
2018-08-12T11:33:44.762Z,10564.00
2018-08-12T11:34:44.806Z,10616.00
2018-08-12T11:35:44.820Z,10472.00
2018-08-12T11:36:44.841Z,10372.00
2018-08-12T11:37:44.875Z,10388.00
2018-08-12T11:38:44.893Z,10364.00
2018-08-12T11:39:44.923Z,10192.00
2018-08-12T11:40:44.960Z,10292.00
2018-08-12T11:41:44.979Z,10560.00
2018-08-12T11:42:45.013Z,10636.00
2018-08-12T11:43:45.036Z,10640.00
2018-08-12T11:44:45.064Z,11324.00
2018-08-12T11:45:45.095Z,12476.00
2018-08-12T11:46:45.113Z,13552.00
2018-08-12T11:47:45.144Z,14496.00
2018-08-12T11:48:45.169Z,15648.00
2018-08-12T11:49:45.196Z,17412.00
2018-08-12T11:50:45.220Z,18560.00
2018-08-12T11:51:45.251Z,18272.00
2018-08-12T11:52:45.281Z,17208.00
2018-08-12T11:53:45.303Z,16536.00
2018-08-12T11:54:45.325Z,16340.00
2018-08-12T11:55:45.362Z,17008.00
2018-08-12T11:56:45.385Z,17856.00
2018-08-12T11:57:45.413Z,18240.00
2018-08-12T11:58:45.442Z,19168.00
2018-08-12T11:59:45.465Z,18816.00
2018-08-12T12:00:45.497Z,17212.00
2018-08-12T12:01:45.528Z,16520.00
2018-08-12T12:02:45.546Z,16416.00
2018-08-12T12:03:45.574Z,16504.00
2018-08-12T12:04:45.610Z,16460.00
2018-08-12T12:05:45.633Z,16604.00
2018-08-12T12:06:45.656Z,17292.00
2018-08-12T12:07:45.687Z,18624.00
2018-08-12T12:08:45.714Z,19360.00
2018-08-12T12:09:45.742Z,19808.00
2018-08-12T12:10:45.771Z,20160.00
2018-08-12T12:11:45.798Z,20320.00
2018-08-12T12:12:45.822Z,20928.00
2018-08-12T12:13:45.854Z,21376.00
2018-08-12T12:14:45.878Z,21440.00
2018-08-12T12:15:45.906Z,21152.00
2018-08-12T12:16:45.935Z,22816.00
2018-08-12T12:17:45.967Z,25952.00
2018-08-12T12:18:45.998Z,27168.00
2018-08-12T12:19:46.036Z,29600.00